Time;durP1;ratioP1;P1;durP2;ratioP2;P2;SDS_P1;SDS_P2;PMS_P1;PMS_P2;Temp;Humidity;BMP_temperature;BMP_pressure;BME280_temperature;BME280_humidity;BME280_pressure;Samples;Min_cycle;Max_cycle;Signal;HPM_P1;HPM_P2
2021/08/13 00:02:24;;;;;;;30.08;5.40;;;;;;;;;;5055698;28;20032;-75
2021/08/13 00:04:49;;;;;;;21.98;5.13;;;;;;;;;;5055888;28;20028;-75
2021/08/13 00:07:14;;;;;;;35.92;5.22;;;;;;;;;;5055883;28;20726;-74
2021/08/13 00:09:40;;;;;;;27.25;4.57;;;;;;;;;;5056005;28;20017;-75
2021/08/13 00:12:06;;;;;;;19.55;3.88;;;;;;;;;;5055798;28;20366;-76
2021/08/13 00:14:32;;;;;;;24.00;4.22;;;;;;;;;;5055769;28;20024;-75
2021/08/13 00:16:57;;;;;;;23.90;5.00;;;;;;;;;;5056032;28;20334;-75
2021/08/13 00:19:22;;;;;;;21.23;4.60;;;;;;;;;;5055786;28;20036;-75
2021/08/13 00:21:49;;;;;;;18.00;5.30;;;;;;;;;;5055711;28;20461;-75
2021/08/13 00:24:15;;;;;;;20.02;4.30;;;;;;;;;;5055330;28;20515;-75
2021/08/13 00:26:40;;;;;;;27.23;4.22;;;;;;;;;;5055590;28;20017;-75
2021/08/13 00:29:05;;;;;;;24.05;5.38;;;;;;;;;;5055222;28;20465;-75
2021/08/13 00:31:31;;;;;;;28.05;5.03;;;;;;;;;;5055565;28;20053;-75
2021/08/13 00:33:56;;;;;;;23.55;4.10;;;;;;;;;;5055186;28;20381;-76
2021/08/13 00:36:21;;;;;;;18.98;4.57;;;;;;;;;;5054923;28;20033;-74
2021/08/13 00:38:47;;;;;;;25.75;5.00;;;;;;;;;;5055076;28;20468;-75
2021/08/13 00:41:12;;;;;;;27.40;4.93;;;;;;;;;;5054380;28;20049;-76
2021/08/13 00:43:37;;;;;;;26.48;4.65;;;;;;;;;;5054421;28;20028;-75
2021/08/13 00:46:04;;;;;;;27.40;4.93;;;;;;;;;;5055091;28;20465;-75
2021/08/13 00:48:30;;;;;;;28.05;6.78;;;;;;;;;;5037166;28;20128;-75
2021/08/13 00:50:55;;;;;;;26.45;5.10;;;;;;;;;;5055312;28;20574;-75
2021/08/13 00:53:21;;;;;;;35.55;6.75;;;;;;;;;;5054795;28;20017;-75
2021/08/13 00:55:48;;;;;;;31.20;6.22;;;;;;;;;;5055132;28;20029;-76
2021/08/13 00:58:14;;;;;;;30.90;5.15;;;;;;;;;;5054713;28;20036;-77
2021/08/13 01:00:40;;;;;;;35.00;5.05;;;;;;;;;;5055003;28;20334;-75
2021/08/13 01:03:06;;;;;;;31.58;5.43;;;;;;;;;;5054660;28;20086;-75
2021/08/13 01:05:31;;;;;;;22.58;5.60;;;;;;;;;;5054709;28;20116;-75
2021/08/13 01:07:56;;;;;;;35.75;4.80;;;;;;;;;;5054071;28;20024;-75
2021/08/13 01:10:24;;;;;;;30.67;4.28;;;;;;;;;;5054497;28;20048;-74
2021/08/13 01:12:53;;;;;;;29.88;5.32;;;;;;;;;;5053833;28;20435;-75
2021/08/13 01:15:20;;;;;;;35.75;4.78;;;;;;;;;;5036405;28;20032;-75
2021/08/13 01:17:51;;;;;;;35.70;5.53;;;;;;;;;;5036077;28;20052;-75
2021/08/13 01:20:29;;;;;;;29.63;6.10;;;;;;;;;;5054729;28;20102;-75
2021/08/13 01:23:00;;;;;;;29.40;4.20;;;;;;;;;;5054712;28;20028;-75
2021/08/13 01:25:27;;;;;;;40.97;6.22;;;;;;;;;;5054124;28;20025;-75
2021/08/13 01:27:54;;;;;;;20.63;3.78;;;;;;;;;;5054233;28;20108;-75
2021/08/13 01:30:20;;;;;;;20.65;4.45;;;;;;;;;;5053901;28;20052;-75
2021/08/13 01:32:59;;;;;;;21.63;5.38;;;;;;;;;;5054434;28;20037;-75
2021/08/13 01:35:29;;;;;;;32.00;5.25;;;;;;;;;;5054016;28;20378;-75
2021/08/13 01:37:56;;;;;;;24.38;4.45;;;;;;;;;;5053788;28;20029;-75
2021/08/13 01:40:22;;;;;;;18.95;4.13;;;;;;;;;;5053250;28;20392;-75
2021/08/13 01:42:48;;;;;;;26.92;4.18;;;;;;;;;;5054097;28;20037;-75
2021/08/13 01:45:15;;;;;;;27.75;4.57;;;;;;;;;;5054249;28;20028;-74
2021/08/13 01:47:42;;;;;;;23.17;5.00;;;;;;;;;;5053802;28;20033;-75
2021/08/13 01:50:07;;;;;;;19.27;4.20;;;;;;;;;;5053690;28;20029;-75
2021/08/13 01:52:33;;;;;;;25.98;4.10;;;;;;;;;;5053508;28;20162;-75
2021/08/13 01:54:59;;;;;;;26.15;4.68;;;;;;;;;;5053763;28;20052;-75
2021/08/13 01:57:24;;;;;;;28.08;4.50;;;;;;;;;;5053841;28;20021;-75
2021/08/13 01:59:50;;;;;;;27.45;5.18;;;;;;;;;;5053791;28;20040;-75
2021/08/13 02:02:16;;;;;;;25.73;4.32;;;;;;;;;;5053410;28;20060;-75
2021/08/13 02:04:42;;;;;;;21.13;3.85;;;;;;;;;;5053174;28;20115;-74
2021/08/13 02:07:09;;;;;;;27.63;5.45;;;;;;;;;;5052846;28;20028;-74
2021/08/13 02:09:34;;;;;;;24.10;4.35;;;;;;;;;;5053548;28;20035;-74
2021/08/13 02:11:59;;;;;;;20.25;4.60;;;;;;;;;;5052967;28;20096;-75
2021/08/13 02:14:25;;;;;;;26.63;5.53;;;;;;;;;;5053316;28;20074;-74
2021/08/13 02:16:52;;;;;;;26.23;4.60;;;;;;;;;;5053191;28;20029;-74
2021/08/13 02:19:22;;;;;;;18.38;4.07;;;;;;;;;;5053422;28;20060;-74
2021/08/13 02:21:48;;;;;;;23.65;4.22;;;;;;;;;;5053399;28;20074;-75
2021/08/13 02:24:17;;;;;;;19.98;4.53;;;;;;;;;;5053244;28;20424;-75
2021/08/13 02:26:42;;;;;;;34.45;4.68;;;;;;;;;;5053315;28;20021;-75
2021/08/13 02:29:08;;;;;;;26.02;4.47;;;;;;;;;;5053118;28;20041;-75
2021/08/13 02:31:33;;;;;;;20.45;4.10;;;;;;;;;;5052984;28;20060;-75
2021/08/13 02:33:58;;;;;;;23.92;4.78;;;;;;;;;;5036761;28;20465;-75
2021/08/13 02:36:28;;;;;;;25.90;4.57;;;;;;;;;;5053205;28;20040;-75
2021/08/13 02:38:53;;;;;;;32.97;6.50;;;;;;;;;;5052602;28;20700;-75
2021/08/13 02:41:19;;;;;;;32.45;5.90;;;;;;;;;;5052995;28;20076;-75
2021/08/13 02:43:51;;;;;;;26.42;4.85;;;;;;;;;;5053086;28;20082;-75
2021/08/13 02:46:18;;;;;;;24.42;4.65;;;;;;;;;;5033381;28;20466;-75
2021/08/13 02:48:43;;;;;;;22.75;4.05;;;;;;;;;;5039439;28;20477;-75
2021/08/13 02:51:11;;;;;;;26.20;5.68;;;;;;;;;;5052534;28;20035;-76
2021/08/13 02:53:38;;;;;;;34.08;5.07;;;;;;;;;;5053073;28;20016;-75
2021/08/13 02:56:08;;;;;;;25.05;5.13;;;;;;;;;;5052924;28;20120;-75
2021/08/13 02:58:54;;;;;;;32.08;6.22;;;;;;;;;;5053186;28;20106;-75
2021/08/13 03:01:27;;;;;;;24.35;4.63;;;;;;;;;;5052092;28;20040;-75
2021/08/13 03:03:53;;;;;;;35.00;4.25;;;;;;;;;;5052839;28;20060;-75
2021/08/13 03:06:20;;;;;;;24.30;5.78;;;;;;;;;;5052448;28;20389;-75
2021/08/13 03:08:48;;;;;;;27.95;6.05;;;;;;;;;;5052175;28;20040;-75
2021/08/13 03:11:14;;;;;;;24.27;4.68;;;;;;;;;;5053158;28;20032;-75
2021/08/13 03:13:41;;;;;;;19.15;4.07;;;;;;;;;;5052378;28;20041;-75
2021/08/13 03:16:06;;;;;;;25.83;5.00;;;;;;;;;;5053023;28;20087;-74
2021/08/13 03:18:32;;;;;;;29.60;5.03;;;;;;;;;;5057046;28;20021;-75
2021/08/13 03:20:58;;;;;;;22.50;4.88;;;;;;;;;;5038534;28;20025;-74
2021/08/13 03:23:23;;;;;;;20.60;4.32;;;;;;;;;;5056670;28;20032;-75
2021/08/13 03:25:49;;;;;;;28.40;5.07;;;;;;;;;;5056640;28;20025;-75
2021/08/13 03:28:14;;;;;;;29.10;4.85;;;;;;;;;;5056286;28;20041;-75
2021/08/13 03:30:41;;;;;;;24.45;4.85;;;;;;;;;;5055885;28;20045;-75
2021/08/13 03:33:10;;;;;;;24.90;4.30;;;;;;;;;;5056714;28;20075;-75
2021/08/13 03:35:36;;;;;;;19.00;3.88;;;;;;;;;;5055993;28;20087;-75
2021/08/13 03:38:02;;;;;;;25.13;4.28;;;;;;;;;;5056541;28;20033;-75
2021/08/13 03:40:27;;;;;;;33.63;6.28;;;;;;;;;;5038624;28;20028;-75
2021/08/13 03:42:52;;;;;;;24.83;6.05;;;;;;;;;;5056441;28;20517;-74
2021/08/13 03:45:17;;;;;;;28.60;5.18;;;;;;;;;;5055954;28;20038;-75
2021/08/13 03:47:43;;;;;;;20.88;4.40;;;;;;;;;;5056010;28;20115;-74
2021/08/13 03:50:08;;;;;;;27.27;5.18;;;;;;;;;;5056175;28;20033;-74
2021/08/13 03:52:33;;;;;;;30.60;4.88;;;;;;;;;;5056457;28;20083;-75
2021/08/13 03:54:59;;;;;;;29.45;5.05;;;;;;;;;;5055569;28;20021;-75
2021/08/13 03:57:24;;;;;;;25.73;5.35;;;;;;;;;;5056036;28;20174;-75
2021/08/13 03:59:49;;;;;;;25.15;5.05;;;;;;;;;;5055710;28;20033;-76
2021/08/13 04:02:14;;;;;;;19.15;4.13;;;;;;;;;;5056026;28;20065;-75
2021/08/13 04:04:40;;;;;;;33.10;5.13;;;;;;;;;;5055894;28;20029;-75
2021/08/13 04:07:05;;;;;;;32.15;5.10;;;;;;;;;;5056151;28;20380;-76
2021/08/13 04:09:30;;;;;;;35.10;4.03;;;;;;;;;;5055498;28;20028;-75
2021/08/13 04:11:55;;;;;;;21.25;4.40;;;;;;;;;;5055830;28;20037;-75
2021/08/13 04:14:21;;;;;;;23.42;4.10;;;;;;;;;;5055223;28;20040;-75
2021/08/13 04:16:46;;;;;;;24.80;4.20;;;;;;;;;;5055200;28;20036;-75
2021/08/13 04:19:11;;;;;;;15.75;4.65;;;;;;;;;;5056017;28;20025;-75
2021/08/13 04:21:37;;;;;;;22.25;3.90;;;;;;;;;;5055112;28;20384;-75
2021/08/13 04:24:02;;;;;;;22.38;4.22;;;;;;;;;;5055500;28;20031;-75
2021/08/13 04:26:27;;;;;;;26.27;5.20;;;;;;;;;;5055576;28;20040;-74
2021/08/13 04:28:53;;;;;;;18.73;4.43;;;;;;;;;;5054779;28;20036;-75
2021/08/13 04:31:18;;;;;;;22.98;4.85;;;;;;;;;;5053510;28;20056;-75
2021/08/13 04:33:43;;;;;;;28.77;4.25;;;;;;;;;;5035976;28;20034;-75
2021/08/13 04:36:09;;;;;;;18.60;3.97;;;;;;;;;;5043797;28;20215;-75
2021/08/13 04:38:34;;;;;;;26.98;4.32;;;;;;;;;;5055034;28;20021;-75
2021/08/13 04:40:59;;;;;;;41.78;7.40;;;;;;;;;;5055441;28;20036;-75
2021/08/13 04:43:24;;;;;;;30.02;4.60;;;;;;;;;;5054585;28;20037;-75
2021/08/13 04:45:50;;;;;;;21.20;5.07;;;;;;;;;;5055204;28;20106;-75
2021/08/13 04:48:15;;;;;;;24.67;5.05;;;;;;;;;;5054742;28;20029;-75
2021/08/13 04:50:40;;;;;;;19.75;3.97;;;;;;;;;;5055138;28;20025;-75
2021/08/13 04:53:06;;;;;;;13.48;4.70;;;;;;;;;;5054469;28;20384;-74
2021/08/13 04:55:31;;;;;;;25.35;3.75;;;;;;;;;;5054182;28;20021;-74
2021/08/13 04:57:56;;;;;;;23.85;4.68;;;;;;;;;;5055133;28;20090;-75
2021/08/13 05:00:22;;;;;;;19.98;4.68;;;;;;;;;;5054932;28;20023;-75
2021/08/13 05:02:47;;;;;;;25.23;4.55;;;;;;;;;;5055192;28;20029;-75
2021/08/13 05:05:12;;;;;;;20.92;4.30;;;;;;;;;;5054782;28;20056;-74
2021/08/13 05:07:38;;;;;;;23.60;4.95;;;;;;;;;;5054659;28;20029;-75
2021/08/13 05:10:08;;;;;;;24.05;4.13;;;;;;;;;;5054858;28;20326;-74
2021/08/13 05:12:33;;;;;;;19.50;2.85;;;;;;;;;;5054444;28;20112;-75
2021/08/13 05:14:59;;;;;;;21.77;3.20;;;;;;;;;;5053895;28;20096;-75
2021/08/13 05:17:24;;;;;;;16.52;3.10;;;;;;;;;;5054584;28;20029;-75
2021/08/13 05:19:49;;;;;;;17.27;3.05;;;;;;;;;;5054749;28;20029;-75
2021/08/13 05:22:14;;;;;;;13.55;2.28;;;;;;;;;;5054473;28;20028;-75
2021/08/13 05:24:40;;;;;;;14.63;3.10;;;;;;;;;;5054732;28;20544;-75
2021/08/13 05:27:05;;;;;;;12.85;2.20;;;;;;;;;;5054663;28;20062;-74
2021/08/13 05:29:30;;;;;;;7.40;1.60;;;;;;;;;;5054160;28;20045;-75
2021/08/13 05:31:56;;;;;;;12.30;3.15;;;;;;;;;;5054133;28;20477;-75
2021/08/13 05:34:21;;;;;;;10.50;2.10;;;;;;;;;;5053992;28;20052;-75
2021/08/13 05:36:46;;;;;;;9.23;1.95;;;;;;;;;;5054180;28;20021;-74
2021/08/13 05:39:11;;;;;;;9.50;2.30;;;;;;;;;;5051250;28;20496;-74
2021/08/13 05:41:37;;;;;;;13.02;2.10;;;;;;;;;;5054261;28;20032;-75
2021/08/13 05:44:02;;;;;;;9.15;2.65;;;;;;;;;;5053367;28;20432;-75
2021/08/13 05:46:27;;;;;;;6.93;2.08;;;;;;;;;;5053936;28;20021;-75
2021/08/13 05:48:54;;;;;;;14.70;3.42;;;;;;;;;;5053463;28;20490;-75
2021/08/13 05:51:19;;;;;;;9.80;2.10;;;;;;;;;;5036062;28;20025;-75
2021/08/13 05:53:45;;;;;;;13.02;2.22;;;;;;;;;;5054149;28;20476;-75
2021/08/13 05:56:10;;;;;;;12.75;3.03;;;;;;;;;;5053542;28;20033;-75
2021/08/13 05:58:35;;;;;;;13.48;2.97;;;;;;;;;;5054124;28;20048;-75
2021/08/13 06:01:02;;;;;;;10.60;2.58;;;;;;;;;;5053551;28;20066;-76
2021/08/13 06:03:27;;;;;;;13.93;2.53;;;;;;;;;;5053523;28;20487;-76
2021/08/13 06:05:52;;;;;;;12.15;2.63;;;;;;;;;;5053714;28;20017;-74
2021/08/13 06:08:18;;;;;;;16.83;3.10;;;;;;;;;;5053275;28;20435;-74
2021/08/13 06:10:43;;;;;;;11.50;2.83;;;;;;;;;;5053590;28;20032;-75
2021/08/13 06:13:09;;;;;;;15.10;2.53;;;;;;;;;;5053067;28;20029;-75
2021/08/13 06:15:34;;;;;;;9.45;2.53;;;;;;;;;;5052787;28;20108;-75
2021/08/13 06:17:59;;;;;;;14.30;2.50;;;;;;;;;;5052839;28;20103;-75
2021/08/13 06:20:25;;;;;;;12.38;2.60;;;;;;;;;;5052740;28;20468;-75
2021/08/13 06:22:50;;;;;;;14.45;2.65;;;;;;;;;;5053284;28;20457;-74
2021/08/13 06:25:16;;;;;;;9.95;2.45;;;;;;;;;;5053229;28;20060;-74
2021/08/13 06:27:42;;;;;;;16.13;3.30;;;;;;;;;;5053022;28;20132;-74
2021/08/13 06:30:12;;;;;;;13.70;3.08;;;;;;;;;;5052353;28;20037;-75
2021/08/13 06:32:37;;;;;;;12.48;3.35;;;;;;;;;;5034965;28;20394;-74
2021/08/13 06:35:04;;;;;;;14.50;3.10;;;;;;;;;;5053063;28;20021;-74
2021/08/13 06:37:29;;;;;;;17.83;3.60;;;;;;;;;;5052895;28;20036;-75
2021/08/13 06:39:54;;;;;;;12.88;3.17;;;;;;;;;;5053065;28;20091;-74
2021/08/13 06:42:19;;;;;;;11.50;2.95;;;;;;;;;;5052983;28;20455;-75
2021/08/13 06:44:45;;;;;;;11.82;3.58;;;;;;;;;;5052825;28;20021;-74
2021/08/13 06:47:10;;;;;;;12.15;2.55;;;;;;;;;;5052735;28;20033;-74
2021/08/13 06:49:35;;;;;;;16.17;3.72;;;;;;;;;;5052855;28;20028;-75
2021/08/13 06:52:02;;;;;;;10.45;2.83;;;;;;;;;;5051811;28;20066;-75
2021/08/13 06:54:27;;;;;;;15.40;3.17;;;;;;;;;;5052445;28;20504;-75
2021/08/13 06:56:52;;;;;;;10.35;2.58;;;;;;;;;;5052685;28;20021;-74
2021/08/13 06:59:18;;;;;;;11.85;2.50;;;;;;;;;;5052669;28;20032;-74
2021/08/13 07:01:43;;;;;;;13.55;3.13;;;;;;;;;;5052444;28;20455;-74
2021/08/13 07:04:09;;;;;;;15.63;3.28;;;;;;;;;;5052963;28;20052;-75
2021/08/13 07:06:34;;;;;;;11.02;2.70;;;;;;;;;;5053073;28;20021;-74
2021/08/13 07:08:59;;;;;;;12.63;2.63;;;;;;;;;;5052706;28;20362;-74
2021/08/13 07:11:25;;;;;;;11.88;2.50;;;;;;;;;;5053000;28;20017;-75
2021/08/13 07:13:50;;;;;;;12.20;3.25;;;;;;;;;;5053149;28;20025;-74
2021/08/13 07:16:15;;;;;;;15.55;3.03;;;;;;;;;;5052511;28;20033;-74
2021/08/13 07:18:41;;;;;;;13.63;2.88;;;;;;;;;;5052261;28;20385;-77
2021/08/13 07:21:06;;;;;;;13.57;3.10;;;;;;;;;;5052547;28;20021;-74
2021/08/13 07:23:31;;;;;;;11.93;3.58;;;;;;;;;;5053003;28;20492;-74
2021/08/13 07:25:56;;;;;;;13.75;3.17;;;;;;;;;;5052964;28;20060;-74
2021/08/13 07:28:22;;;;;;;15.68;3.33;;;;;;;;;;5052469;28;20033;-74
2021/08/13 07:30:47;;;;;;;11.63;3.33;;;;;;;;;;5052227;28;20171;-75
2021/08/13 07:33:12;;;;;;;12.13;3.28;;;;;;;;;;5052595;28;20021;-75
2021/08/13 07:35:37;;;;;;;18.20;3.65;;;;;;;;;;5052080;28;20033;-75
2021/08/13 07:38:03;;;;;;;15.40;3.78;;;;;;;;;;5033622;28;20033;-74
2021/08/13 07:40:28;;;;;;;16.48;3.40;;;;;;;;;;5052834;28;20021;-74
2021/08/13 07:42:55;;;;;;;14.93;3.78;;;;;;;;;;5052566;28;20036;-74
2021/08/13 07:45:20;;;;;;;12.07;3.60;;;;;;;;;;5052267;28;20124;-74
2021/08/13 07:47:45;;;;;;;13.75;3.47;;;;;;;;;;5052318;28;20124;-75
2021/08/13 07:50:11;;;;;;;16.55;3.33;;;;;;;;;;5052399;28;20028;-74
2021/08/13 07:52:36;;;;;;;12.48;2.95;;;;;;;;;;5045954;28;20879;-75
2021/08/13 07:55:01;;;;;;;16.33;3.55;;;;;;;;;;5052291;28;20031;-75
2021/08/13 07:57:27;;;;;;;23.15;3.83;;;;;;;;;;5051916;28;20083;-76
2021/08/13 07:59:53;;;;;;;24.23;3.75;;;;;;;;;;5052054;28;20032;-75
2021/08/13 08:02:18;;;;;;;16.65;3.70;;;;;;;;;;5052404;28;20357;-75
2021/08/13 08:04:45;;;;;;;18.40;3.50;;;;;;;;;;5054913;28;20041;-75
2021/08/13 08:07:10;;;;;;;29.73;3.53;;;;;;;;;;5055326;28;20033;-76
2021/08/13 08:09:35;;;;;;;20.15;3.60;;;;;;;;;;5054656;28;20074;-75
2021/08/13 08:12:01;;;;;;;17.35;3.70;;;;;;;;;;5055465;28;20021;-75
2021/08/13 08:14:26;;;;;;;22.58;5.97;;;;;;;;;;5054473;28;20032;-75
2021/08/13 08:16:51;;;;;;;18.95;3.65;;;;;;;;;;5055264;28;20028;-75
2021/08/13 08:19:16;;;;;;;25.40;3.92;;;;;;;;;;5055307;28;20102;-76
2021/08/13 08:21:43;;;;;;;23.98;3.95;;;;;;;;;;5055445;28;20028;-76
2021/08/13 08:24:08;;;;;;;27.70;4.00;;;;;;;;;;5055640;28;20021;-76
2021/08/13 08:26:34;;;;;;;22.83;3.75;;;;;;;;;;5055409;28;20041;-76
2021/08/13 08:28:59;;;;;;;22.92;3.90;;;;;;;;;;5054696;28;20047;-76
2021/08/13 08:31:24;;;;;;;22.45;4.28;;;;;;;;;;5054834;28;20076;-76
2021/08/13 08:33:50;;;;;;;19.63;4.18;;;;;;;;;;5055123;28;20477;-76
2021/08/13 08:36:15;;;;;;;17.92;4.72;;;;;;;;;;5054767;28;20029;-76
2021/08/13 08:38:40;;;;;;;22.90;4.22;;;;;;;;;;5054892;28;20459;-76
2021/08/13 08:41:06;;;;;;;26.75;5.40;;;;;;;;;;5054326;28;20024;-75
2021/08/13 08:43:32;;;;;;;21.27;3.40;;;;;;;;;;5054978;28;20086;-76
2021/08/13 08:45:59;;;;;;;21.73;3.70;;;;;;;;;;5054735;28;20020;-76
2021/08/13 08:48:25;;;;;;;17.00;3.85;;;;;;;;;;5033783;28;20610;-76
2021/08/13 08:50:51;;;;;;;16.05;3.45;;;;;;;;;;5043397;28;20033;-76
2021/08/13 08:53:21;;;;;;;10.02;2.92;;;;;;;;;;5046733;28;20021;-76
2021/08/13 08:55:46;;;;;;;9.02;2.45;;;;;;;;;;5034230;28;21519;-76
2021/08/13 08:58:11;;;;;;;12.85;2.60;;;;;;;;;;5050080;28;20120;-76
2021/08/13 09:00:37;;;;;;;14.55;2.60;;;;;;;;;;5049209;28;20389;-76
2021/08/13 09:03:02;;;;;;;16.17;2.40;;;;;;;;;;5049753;28;20021;-75
2021/08/13 09:05:27;;;;;;;13.38;2.92;;;;;;;;;;5050633;28;20090;-76
2021/08/13 09:07:53;;;;;;;9.30;2.03;;;;;;;;;;5050774;28;20256;-76
2021/08/13 09:10:18;;;;;;;9.07;2.60;;;;;;;;;;5048408;28;20551;-76
2021/08/13 09:12:43;;;;;;;11.30;2.55;;;;;;;;;;5047707;28;20056;-75
2021/08/13 09:15:27;;;;;;;8.80;2.13;;;;;;;;;;5051275;28;20021;-76
2021/08/13 09:18:14;;;;;;;12.57;2.60;;;;;;;;;;5050806;28;20029;-77
2021/08/13 09:20:41;;;;;;;13.98;2.85;;;;;;;;;;5031251;28;20033;-76
2021/08/13 09:23:06;;;;;;;11.85;2.63;;;;;;;;;;5030159;28;20477;-77
2021/08/13 09:25:32;;;;;;;11.30;2.45;;;;;;;;;;5030568;28;20045;-76
2021/08/13 09:27:57;;;;;;;11.27;2.28;;;;;;;;;;5044041;28;20021;-76
2021/08/13 09:30:23;;;;;;;11.65;2.47;;;;;;;;;;5049589;28;20060;-76
2021/08/13 09:32:56;;;;;;;11.48;1.95;;;;;;;;;;5049921;28;20039;-76
2021/08/13 09:35:41;;;;;;;7.07;2.38;;;;;;;;;;5032363;28;20021;-77
2021/08/13 09:38:07;;;;;;;;;;;;;;;;;;5049468;28;20021;-76
2021/08/13 09:40:36;;;;;;;18.45;2.38;;;;;;;;;;5050157;28;19916;-76
2021/08/13 09:43:02;;;;;;;12.27;2.28;;;;;;;;;;5050508;28;20410;-78
2021/08/13 09:45:27;;;;;;;11.82;2.25;;;;;;;;;;5040365;28;20033;-79
2021/08/13 09:47:53;;;;;;;8.90;2.00;;;;;;;;;;5045395;28;20052;-75
2021/08/13 09:50:31;;;;;;;11.55;3.22;;;;;;;;;;5049278;28;20155;-76
2021/08/13 09:53:07;;;;;;;13.45;1.98;;;;;;;;;;5050418;28;20040;-77
2021/08/13 09:55:33;;;;;;;10.13;2.22;;;;;;;;;;5049577;28;20119;-75
2021/08/13 09:57:58;;;;;;;12.40;3.28;;;;;;;;;;5049136;28;20579;-76
2021/08/13 10:00:23;;;;;;;11.15;2.42;;;;;;;;;;5048754;28;20048;-76
2021/08/13 10:02:49;;;;;;;14.13;2.38;;;;;;;;;;5045513;28;20021;-76
2021/08/13 10:05:14;;;;;;;12.20;2.85;;;;;;;;;;5049996;28;20033;-76
2021/08/13 10:07:49;;;;;;;10.43;2.38;;;;;;;;;;5049060;28;20469;-78
2021/08/13 10:10:15;;;;;;;12.80;3.15;;;;;;;;;;5050373;28;20048;-76
2021/08/13 10:12:45;;;;;;;9.52;2.00;;;;;;;;;;5049613;28;20068;-76
2021/08/13 10:15:11;;;;;;;14.07;2.22;;;;;;;;;;5049928;28;20044;-75
2021/08/13 10:17:37;;;;;;;21.55;3.28;;;;;;;;;;5048568;28;20033;-77
2021/08/13 10:20:02;;;;;;;17.15;2.50;;;;;;;;;;5049890;28;20112;-76
2021/08/13 10:22:28;;;;;;;13.32;3.25;;;;;;;;;;5049959;28;20013;-76
2021/08/13 10:24:53;;;;;;;14.63;2.38;;;;;;;;;;5050301;28;20025;-76
2021/08/13 10:27:19;;;;;;;11.98;2.55;;;;;;;;;;5048532;28;20076;-77
2021/08/13 10:29:47;;;;;;;10.23;2.42;;;;;;;;;;5042224;28;20021;-77
2021/08/13 10:32:13;;;;;;;10.38;2.47;;;;;;;;;;5049672;28;20131;-75
2021/08/13 10:34:38;;;;;;;12.90;3.20;;;;;;;;;;5049297;28;20045;-76
2021/08/13 10:37:09;;;;;;;15.68;3.10;;;;;;;;;;5049284;28;20024;-76
2021/08/13 10:39:35;;;;;;;14.00;3.05;;;;;;;;;;5038625;28;20041;-76
2021/08/13 10:42:02;;;;;;;13.85;3.50;;;;;;;;;;5048695;28;20029;-77
2021/08/13 10:44:31;;;;;;;15.77;3.75;;;;;;;;;;5049496;28;20017;-76
2021/08/13 10:46:59;;;;;;;17.77;3.67;;;;;;;;;;5048648;28;20456;-76
2021/08/13 10:49:25;;;;;;;17.02;4.10;;;;;;;;;;5030879;28;20048;-75
2021/08/13 10:52:04;;;;;;;12.52;3.33;;;;;;;;;;5048464;28;20381;-76
2021/08/13 10:54:49;;;;;;;13.13;3.50;;;;;;;;;;5049283;28;20029;-75
2021/08/13 10:57:15;;;;;;;17.58;3.35;;;;;;;;;;5048197;28;20041;-76
2021/08/13 10:59:40;;;;;;;17.95;3.20;;;;;;;;;;5048595;28;20025;-76
2021/08/13 11:02:11;;;;;;;15.45;3.13;;;;;;;;;;5048356;28;20095;-77
2021/08/13 11:04:38;;;;;;;13.95;2.65;;;;;;;;;;5048759;28;20100;-77
2021/08/13 11:07:03;;;;;;;15.27;3.20;;;;;;;;;;5048640;28;20021;-77
2021/08/13 11:09:33;;;;;;;17.17;3.17;;;;;;;;;;5048804;28;20473;-76
2021/08/13 11:12:02;;;;;;;12.32;2.80;;;;;;;;;;5049236;28;20063;-76
2021/08/13 11:14:28;;;;;;;10.90;2.45;;;;;;;;;;5049064;28;20119;-78
2021/08/13 11:16:54;;;;;;;10.70;2.53;;;;;;;;;;5049169;28;20486;-76
2021/08/13 11:19:20;;;;;;;9.35;2.88;;;;;;;;;;5048558;28;20060;-76
2021/08/13 11:21:48;;;;;;;12.20;2.25;;;;;;;;;;5048096;28;20036;-75
2021/08/13 11:24:14;;;;;;;11.57;1.90;;;;;;;;;;5047795;28;20037;-76
2021/08/13 11:26:58;;;;;;;5.97;1.80;;;;;;;;;;5048497;28;20303;-76
2021/08/13 11:29:29;;;;;;;7.00;1.55;;;;;;;;;;5044431;28;20075;-75
2021/08/13 11:32:18;;;;;;;4.28;1.52;;;;;;;;;;5048398;28;20053;-75
2021/08/13 11:34:46;;;;;;;6.95;1.52;;;;;;;;;;5038311;28;20037;-76
2021/08/13 11:37:29;;;;;;;10.30;2.08;;;;;;;;;;5048725;28;20032;-76
2021/08/13 11:39:59;;;;;;;3.65;1.40;;;;;;;;;;5051840;28;20049;-77
2021/08/13 11:42:30;;;;;;;5.40;1.30;;;;;;;;;;5051351;28;20040;-76
2021/08/13 11:44:56;;;;;;;4.85;1.30;;;;;;;;;;5031224;28;20411;-76
2021/08/13 11:47:22;;;;;;;4.47;1.50;;;;;;;;;;5050100;28;20139;-76
2021/08/13 11:49:48;;;;;;;10.35;2.13;;;;;;;;;;5050701;28;20449;-76
2021/08/13 11:52:21;;;;;;;8.38;2.13;;;;;;;;;;5051057;28;20028;-76
2021/08/13 11:54:46;;;;;;;4.80;1.40;;;;;;;;;;5046587;28;20047;-76
2021/08/13 11:57:12;;;;;;;6.72;1.50;;;;;;;;;;5044042;28;20005;-76
2021/08/13 11:59:37;;;;;;;5.65;1.83;;;;;;;;;;5050900;28;20461;-76
2021/08/13 12:02:03;;;;;;;8.00;1.90;;;;;;;;;;5042056;28;20037;-76
2021/08/13 12:04:28;;;;;;;8.13;2.80;;;;;;;;;;5032891;28;20501;-76
2021/08/13 12:06:58;;;;;;;5.00;1.70;;;;;;;;;;5048967;28;20031;-76
2021/08/13 12:09:29;;;;;;;8.60;1.95;;;;;;;;;;5051846;28;20045;-76
2021/08/13 12:11:55;;;;;;;10.57;2.70;;;;;;;;;;5050808;28;20366;-76
2021/08/13 12:14:20;;;;;;;12.35;2.45;;;;;;;;;;5051456;28;20036;-76
2021/08/13 12:16:51;;;;;;;16.13;3.45;;;;;;;;;;5048018;28;20061;-76
2021/08/13 12:19:16;;;;;;;8.48;2.28;;;;;;;;;;5051302;28;20013;-76
2021/08/13 12:22:02;;;;;;;14.98;3.65;;;;;;;;;;5051502;28;20362;-77
2021/08/13 12:24:40;;;;;;;11.27;3.45;;;;;;;;;;5050280;28;20457;-76
2021/08/13 12:27:09;;;;;;;11.57;3.03;;;;;;;;;;5050614;28;20082;-77
2021/08/13 12:29:36;;;;;;;8.57;2.80;;;;;;;;;;5051052;28;21047;-77
2021/08/13 12:32:02;;;;;;;20.23;4.10;;;;;;;;;;5050817;28;20081;-76
2021/08/13 12:34:29;;;;;;;9.68;3.13;;;;;;;;;;5051069;28;20033;-77
2021/08/13 12:37:07;;;;;;;17.00;3.53;;;;;;;;;;5050641;28;20035;-77
2021/08/13 12:39:34;;;;;;;16.25;3.80;;;;;;;;;;5047253;28;20032;-76
2021/08/13 12:42:00;;;;;;;15.30;3.55;;;;;;;;;;5050290;28;20031;-76
2021/08/13 12:44:25;;;;;;;13.63;4.47;;;;;;;;;;5050844;28;20078;-78
2021/08/13 12:46:51;;;;;;;15.05;3.78;;;;;;;;;;5050566;28;20021;-77
2021/08/13 12:49:18;;;;;;;13.57;3.55;;;;;;;;;;5049401;28;20029;-76
2021/08/13 12:51:44;;;;;;;16.80;4.30;;;;;;;;;;5044423;28;20436;-76
2021/08/13 12:54:28;;;;;;;14.75;3.58;;;;;;;;;;5050475;28;20013;-76
2021/08/13 12:56:57;;;;;;;14.57;3.63;;;;;;;;;;5050935;28;20036;-76
2021/08/13 12:59:29;;;;;;;17.08;3.55;;;;;;;;;;5050617;28;20068;-76
2021/08/13 13:01:55;;;;;;;18.40;4.53;;;;;;;;;;5050321;28;20830;-76
2021/08/13 13:04:20;;;;;;;14.95;3.75;;;;;;;;;;5049833;28;20025;-77
2021/08/13 13:06:49;;;;;;;15.13;4.22;;;;;;;;;;5049761;28;20425;-76
2021/08/13 13:09:26;;;;;;;12.50;3.05;;;;;;;;;;5050881;28;20040;-78
2021/08/13 13:12:10;;;;;;;10.27;3.13;;;;;;;;;;5041439;28;20431;-77
2021/08/13 13:14:36;;;;;;;18.45;3.00;;;;;;;;;;5047844;28;20477;-77
2021/08/13 13:17:08;;;;;;;12.18;3.20;;;;;;;;;;5050795;28;20029;-78
2021/08/13 13:19:34;;;;;;;13.35;2.90;;;;;;;;;;5051342;28;20024;-77
2021/08/13 13:22:19;;;;;;;13.65;3.28;;;;;;;;;;5050971;28;20369;-77
2021/08/13 13:24:45;;;;;;;14.20;3.15;;;;;;;;;;5051551;28;20536;-78
2021/08/13 13:27:10;;;;;;;12.73;3.22;;;;;;;;;;5050756;28;20115;-77
2021/08/13 13:29:37;;;;;;;11.32;3.38;;;;;;;;;;5050379;28;20051;-76
2021/08/13 13:32:16;;;;;;;12.10;2.85;;;;;;;;;;5050781;28;20084;-76
2021/08/13 13:34:52;;;;;;;14.60;3.45;;;;;;;;;;5051026;28;20025;-76
2021/08/13 13:37:17;;;;;;;11.82;2.88;;;;;;;;;;5050619;28;20229;-76
2021/08/13 13:39:43;;;;;;;12.43;3.67;;;;;;;;;;5050870;28;20180;-76
2021/08/13 13:42:08;;;;;;;14.65;4.18;;;;;;;;;;5050277;28;20036;-76
2021/08/13 13:44:34;;;;;;;13.85;3.25;;;;;;;;;;5050556;28;20067;-77
2021/08/13 13:46:59;;;;;;;17.23;4.25;;;;;;;;;;5050644;28;20028;-76
2021/08/13 13:49:24;;;;;;;18.77;3.80;;;;;;;;;;5050380;28;20955;-76
2021/08/13 13:51:50;;;;;;;20.70;4.63;;;;;;;;;;5050030;28;20025;-77
2021/08/13 13:54:15;;;;;;;18.02;3.88;;;;;;;;;;5050332;28;20025;-77
2021/08/13 13:56:40;;;;;;;12.73;2.97;;;;;;;;;;5050745;28;20082;-79
2021/08/13 13:59:05;;;;;;;16.73;3.08;;;;;;;;;;5050676;28;20048;-77
2021/08/13 14:01:31;;;;;;;13.73;3.33;;;;;;;;;;5048508;28;20108;-77
2021/08/13 14:03:56;;;;;;;13.82;3.40;;;;;;;;;;5017451;28;20044;-78
2021/08/13 14:06:21;;;;;;;11.40;3.47;;;;;;;;;;5042644;28;20025;-77
2021/08/13 14:08:50;;;;;;;17.73;3.83;;;;;;;;;;5048330;28;20048;-79
2021/08/13 14:11:15;;;;;;;14.40;3.20;;;;;;;;;;5048554;28;20040;-78
2021/08/13 14:13:40;;;;;;;16.90;3.78;;;;;;;;;;5048427;28;20025;-78
2021/08/13 14:16:05;;;;;;;16.67;3.65;;;;;;;;;;5048579;28;20052;-77
2021/08/13 14:18:31;;;;;;;13.63;3.50;;;;;;;;;;5046323;28;20374;-77
2021/08/13 14:20:56;;;;;;;14.90;3.10;;;;;;;;;;5048861;28;20048;-76
2021/08/13 14:23:21;;;;;;;12.13;2.90;;;;;;;;;;5049766;28;20480;-77
2021/08/13 14:25:47;;;;;;;14.63;3.42;;;;;;;;;;5046140;28;20025;-77
2021/08/13 14:28:12;;;;;;;12.63;3.72;;;;;;;;;;5047131;28;20029;-77
2021/08/13 14:30:37;;;;;;;12.15;2.80;;;;;;;;;;5048322;28;20048;-77